Furenas — OZ2085 — position and weather

sailwx.info

Track history (hours):
 
Tides and Currents Weather Stations Pressure Air Temp Water Temp Dewpoint Dewpoint Depression Visibility Wind Speed Wind Dir Waves Ship Positions

Furenas

Last reported at 2015-Mar-04 19:33 UTC. Time now 2015-Mar-04 20:21 UTC.
Position N 58°05' E 009°60'.

Length 137 m; draft 8.2 m.

Type: Ship (hazmat cat A). MMSI: 231734000.

Date/timePositionNaut miles runAvg speedWind from/ knotsBaromVisibWave heightAir tempDewpointWater temp
2015-Mar-04 19:33N 58°05' E 009°60'1211.7
2015-Mar-04 18:33N 58°08' E 010°21'1211.8
2015-Mar-04 17:33N 58°10' E 010°43'1211.9
2015-Mar-04 16:33N 58°14' E 011°05'1111.1
2015-Mar-04 15:34N 58°20' E 011°22'2 2.4
2015-Mar-04 14:32N 58°21' E 011°26'0 0.0
2015-Mar-04 13:14N 58°21' E 011°26'0 0.0
2015-Mar-04 01:14N 58°21' E 011°26'0 0.0
2015-Mar-04 00:33N 58°21' E 011°26'3 2.8
2015-Mar-03 23:33N 58°20' E 011°21'0 0.1
2015-Mar-03 22:30N 58°20' E 011°21'0 0.0
2015-Mar-03 21:33N 58°20' E 011°21'0 0.0
2015-Mar-03 20:33N 58°20' E 011°21'0 0.0
2015-Mar-03 19:33N 58°20' E 011°21'0 0.0
2015-Mar-03 18:33N 58°20' E 011°21'0 0.0
2015-Mar-03 17:33N 58°20' E 011°21'0 0.0
2015-Mar-03 16:33N 58°20' E 011°21'0 0.0
2015-Mar-03 15:33N 58°20' E 011°21'0 0.0
2015-Mar-03 14:33N 58°20' E 011°21'0 0.0
2015-Mar-03 13:33N 58°20' E 011°21'0 0.0
2015-Mar-03 12:33N 58°20' E 011°21'0 0.0
2015-Mar-03 11:33N 58°20' E 011°21'0 0.0
2015-Mar-03 10:33N 58°20' E 011°21'0 0.0
2015-Mar-03 09:33N 58°20' E 011°21'0 0.0
2015-Mar-03 08:33N 58°20' E 011°21'0 0.0
2015-Mar-03 07:33N 58°20' E 011°21'0 0.0
2015-Mar-03 06:33N 58°20' E 011°21'0 0.0
2015-Mar-03 05:33N 58°20' E 011°21'0 0.0
2015-Mar-03 04:33N 58°20' E 011°21'1 0.8
2015-Mar-03 03:33N 58°19' E 011°21'8 8.1
2015-Mar-03 02:33N 58°18' E 011°06'8 8.2
2015-Mar-03 01:33N 58°24' E 010°58'8 7.7
2015-Mar-03 00:33N 58°32' E 010°53'8 8.1
2015-Mar-02 23:33N 58°39' E 010°48'8 8.0
2015-Mar-02 22:33N 58°47' E 010°44'10 8.0
2015-Mar-02 21:16N 58°57' E 010°39'6 8.0
2015-Mar-02 20:33N 59°02' E 010°35'10 9.7
2015-Mar-02 19:33N 59°12' E 010°37'1413.7
2015-Mar-02 18:33N 59°26' E 010°33'2712.2
2015-Mar-02 16:19N 59°53' E 010°39'3 3.9
2015-Mar-02 15:30N 59°53' E 010°46'0 0.0
2015-Mar-01 21:25N 59°53' E 010°46'0 0.0
2015-Mar-01 20:33N 59°53' E 010°46'17 8.0
2015-Mar-01 18:30N 59°37' E 010°38'1313.6
2015-Mar-01 17:33N 59°24' E 010°34'1414.2
2015-Mar-01 16:34N 59°11' E 010°39'1010.2
2015-Mar-01 15:33N 59°00' E 010°37'1310.7
2015-Mar-01 14:20N 58°48' E 010°44'911.8
2015-Mar-01 13:33N 58°39' E 010°49'1211.9
2015-Mar-01 12:33N 58°28' E 010°55'1212.1
2015-Mar-01 11:33N 58°16' E 011°03'1212.1
2015-Mar-01 10:33N 58°04' E 011°09'1212.0
2015-Mar-01 09:33N 57°53' E 011°16'1212.0
2015-Mar-01 08:34N 57°42' E 011°24'10 9.8
2015-Mar-01 07:33N 57°37' E 011°40'5 5.4
2015-Mar-01 06:33N 57°40' E 011°48'0 0.0
2015-Mar-01 05:34N 57°40' E 011°48'0 0.0
2015-Mar-01 04:33N 57°40' E 011°48'7 6.6
2015-Mar-01 03:33N 57°36' E 011°39'1111.0
2015-Mar-01 02:33N 57°25' E 011°38'1212.0
2015-Mar-01 01:33N 57°13' E 011°39'1211.8
2015-Mar-01 00:34N 57°01' E 011°44'1211.8
2015-Feb-28 23:33N 56°50' E 011°51'1110.7
2015-Feb-28 22:33N 56°39' E 011°47'11 0.3
2015-Feb-27 13:31N 56°31' E 011°59'1111.5
2015-Feb-27 12:34N 56°20' E 012°04'1111.5
2015-Feb-27 11:34N 56°13' E 012°19'1212.1
2015-Feb-27 10:34N 56°05' E 012°36'1211.8
2015-Feb-27 09:34N 55°54' E 012°45'1211.8
2015-Feb-27 08:34N 55°43' E 012°52'9 9.3
2015-Feb-27 07:34N 55°34' E 012°49'1111.0
2015-Feb-27 06:34N 55°24' E 012°41'10 9.8
2015-Feb-27 05:33N 55°16' E 012°51'1212.0
2015-Feb-27 04:34N 55°15' E 013°12'1212.0
2015-Feb-27 03:33N 55°14' E 013°33'1211.9
2015-Feb-27 02:34N 55°14' E 013°54'1212.0
2015-Feb-27 01:34N 55°14' E 014°15'1211.9
2015-Feb-27 00:33N 55°23' E 014°29'1211.8
2015-Feb-26 23:33N 55°30' E 014°46'1212.0
2015-Feb-26 22:33N 55°36' E 015°04'1211.9
2015-Feb-26 21:33N 55°42' E 015°22'11211.2
2015-Feb-26 11:33N 57°13' E 017°20'1212.2
2015-Feb-26 10:32N 57°25' E 017°27'7410.5
2015-Feb-26 03:29N 58°38' E 017°07'1314.3
2015-Feb-26 02:33N 58°38' E 016°42'1312.6
2015-Feb-26 01:33N 58°38' E 016°17'1 0.1
2015-Feb-25 01:33N 58°37' E 016°15'8 7.8
2015-Feb-25 00:33N 58°39' E 016°29'1212.0
2015-Feb-24 23:33N 58°36' E 016°52'88 9.8
2015-Feb-24 14:31N 57°11' E 017°36'12311.2
2015-Feb-24 03:33N 55°36' E 015°16'1212.1
2015-Feb-24 02:33N 55°30' E 014°58'1312.1
2015-Feb-24 01:27N 55°23' E 014°38'1312.0
2015-Feb-24 00:24N 55°13' E 014°24'1511.8
2015-Feb-23 23:09N 55°02' E 014°08'711.9
2015-Feb-23 22:33N 54°59' E 013°56'1212.1
2015-Feb-23 21:33N 54°55' E 013°36'1712.0
2015-Feb-23 20:09N 54°50' E 013°09'712.0
2015-Feb-23 19:33N 54°48' E 012°57'1211.9
2015-Feb-23 18:31N 54°42' E 012°38'1212.0
2015-Feb-23 17:33N 54°36' E 012°21'1211.7
2015-Feb-23 16:33N 54°26' E 012°11'1211.8
2015-Feb-23 15:34N 54°24' E 011°51'1211.8
2015-Feb-23 14:33N 54°29' E 011°32'1212.1
2015-Feb-23 13:34N 54°34' E 011°14'1212.0
2015-Feb-23 12:32N 54°40' E 010°55'  
Track history (hours):
 
Tides and Currents Weather Stations Pressure Air Temp Water Temp Dewpoint Dewpoint Depression Visibility Wind Speed Wind Dir Waves Ship Positions

Furenas

Last reported at 2015-Mar-04 19:33 UTC. Time now 2015-Mar-04 20:21 UTC.
Position N 58°05' E 009°60'.

Length 137 m; draft 8.2 m.

Type: Ship (hazmat cat A). MMSI: 231734000.

Date/timePositionNaut miles runAvg speedWind from/ knotsBaromVisibWave heightAir tempDewpointWater temp
2015-Mar-04 19:33N 58°05' E 009°60'1211.7
2015-Mar-04 18:33N 58°08' E 010°21'1211.8
2015-Mar-04 17:33N 58°10' E 010°43'1211.9
2015-Mar-04 16:33N 58°14' E 011°05'1111.1
2015-Mar-04 15:34N 58°20' E 011°22'2 2.4
2015-Mar-04 14:32N 58°21' E 011°26'0 0.0
2015-Mar-04 13:14N 58°21' E 011°26'0 0.0
2015-Mar-04 01:14N 58°21' E 011°26'0 0.0
2015-Mar-04 00:33N 58°21' E 011°26'3 2.8
2015-Mar-03 23:33N 58°20' E 011°21'0 0.1
2015-Mar-03 22:30N 58°20' E 011°21'0 0.0
2015-Mar-03 21:33N 58°20' E 011°21'0 0.0
2015-Mar-03 20:33N 58°20' E 011°21'0 0.0
2015-Mar-03 19:33N 58°20' E 011°21'0 0.0
2015-Mar-03 18:33N 58°20' E 011°21'0 0.0
2015-Mar-03 17:33N 58°20' E 011°21'0 0.0
2015-Mar-03 16:33N 58°20' E 011°21'0 0.0
2015-Mar-03 15:33N 58°20' E 011°21'0 0.0
2015-Mar-03 14:33N 58°20' E 011°21'0 0.0
2015-Mar-03 13:33N 58°20' E 011°21'0 0.0
2015-Mar-03 12:33N 58°20' E 011°21'0 0.0
2015-Mar-03 11:33N 58°20' E 011°21'0 0.0
2015-Mar-03 10:33N 58°20' E 011°21'0 0.0
2015-Mar-03 09:33N 58°20' E 011°21'0 0.0
2015-Mar-03 08:33N 58°20' E 011°21'0 0.0
2015-Mar-03 07:33N 58°20' E 011°21'0 0.0
2015-Mar-03 06:33N 58°20' E 011°21'0 0.0
2015-Mar-03 05:33N 58°20' E 011°21'0 0.0
2015-Mar-03 04:33N 58°20' E 011°21'1 0.8
2015-Mar-03 03:33N 58°19' E 011°21'8 8.1
2015-Mar-03 02:33N 58°18' E 011°06'8 8.2
2015-Mar-03 01:33N 58°24' E 010°58'8 7.7
2015-Mar-03 00:33N 58°32' E 010°53'8 8.1
2015-Mar-02 23:33N 58°39' E 010°48'8 8.0
2015-Mar-02 22:33N 58°47' E 010°44'10 8.0
2015-Mar-02 21:16N 58°57' E 010°39'6 8.0
2015-Mar-02 20:33N 59°02' E 010°35'10 9.7
2015-Mar-02 19:33N 59°12' E 010°37'1413.7
2015-Mar-02 18:33N 59°26' E 010°33'2712.2
2015-Mar-02 16:19N 59°53' E 010°39'3 3.9
2015-Mar-02 15:30N 59°53' E 010°46'0 0.0
2015-Mar-01 21:25N 59°53' E 010°46'0 0.0
2015-Mar-01 20:33N 59°53' E 010°46'17 8.0
2015-Mar-01 18:30N 59°37' E 010°38'1313.6
2015-Mar-01 17:33N 59°24' E 010°34'1414.2
2015-Mar-01 16:34N 59°11' E 010°39'1010.2
2015-Mar-01 15:33N 59°00' E 010°37'1310.7
2015-Mar-01 14:20N 58°48' E 010°44'911.8
2015-Mar-01 13:33N 58°39' E 010°49'1211.9
2015-Mar-01 12:33N 58°28' E 010°55'1212.1
2015-Mar-01 11:33N 58°16' E 011°03'1212.1
2015-Mar-01 10:33N 58°04' E 011°09'1212.0
2015-Mar-01 09:33N 57°53' E 011°16'1212.0
2015-Mar-01 08:34N 57°42' E 011°24'10 9.8
2015-Mar-01 07:33N 57°37' E 011°40'5 5.4
2015-Mar-01 06:33N 57°40' E 011°48'0 0.0
2015-Mar-01 05:34N 57°40' E 011°48'0 0.0
2015-Mar-01 04:33N 57°40' E 011°48'7 6.6
2015-Mar-01 03:33N 57°36' E 011°39'1111.0
2015-Mar-01 02:33N 57°25' E 011°38'1212.0
2015-Mar-01 01:33N 57°13' E 011°39'1211.8
2015-Mar-01 00:34N 57°01' E 011°44'1211.8
2015-Feb-28 23:33N 56°50' E 011°51'1110.7
2015-Feb-28 22:33N 56°39' E 011°47'11 0.3
2015-Feb-27 13:31N 56°31' E 011°59'1111.5
2015-Feb-27 12:34N 56°20' E 012°04'1111.5
2015-Feb-27 11:34N 56°13' E 012°19'1212.1
2015-Feb-27 10:34N 56°05' E 012°36'1211.8
2015-Feb-27 09:34N 55°54' E 012°45'1211.8
2015-Feb-27 08:34N 55°43' E 012°52'9 9.3
2015-Feb-27 07:34N 55°34' E 012°49'1111.0
2015-Feb-27 06:34N 55°24' E 012°41'10 9.8
2015-Feb-27 05:33N 55°16' E 012°51'1212.0
2015-Feb-27 04:34N 55°15' E 013°12'1212.0
2015-Feb-27 03:33N 55°14' E 013°33'1211.9
2015-Feb-27 02:34N 55°14' E 013°54'1212.0
2015-Feb-27 01:34N 55°14' E 014°15'1211.9
2015-Feb-27 00:33N 55°23' E 014°29'1211.8
2015-Feb-26 23:33N 55°30' E 014°46'1212.0
2015-Feb-26 22:33N 55°36' E 015°04'1211.9
2015-Feb-26 21:33N 55°42' E 015°22'11211.2
2015-Feb-26 11:33N 57°13' E 017°20'1212.2
2015-Feb-26 10:32N 57°25' E 017°27'7410.5
2015-Feb-26 03:29N 58°38' E 017°07'1314.3
2015-Feb-26 02:33N 58°38' E 016°42'1312.6
2015-Feb-26 01:33N 58°38' E 016°17'1 0.1
2015-Feb-25 01:33N 58°37' E 016°15'8 7.8
2015-Feb-25 00:33N 58°39' E 016°29'1212.0
2015-Feb-24 23:33N 58°36' E 016°52'88 9.8
2015-Feb-24 14:31N 57°11' E 017°36'12311.2
2015-Feb-24 03:33N 55°36' E 015°16'1212.1
2015-Feb-24 02:33N 55°30' E 014°58'1312.1
2015-Feb-24 01:27N 55°23' E 014°38'1312.0
2015-Feb-24 00:24N 55°13' E 014°24'1511.8
2015-Feb-23 23:09N 55°02' E 014°08'711.9
2015-Feb-23 22:33N 54°59' E 013°56'1212.1
2015-Feb-23 21:33N 54°55' E 013°36'1712.0
2015-Feb-23 20:09N 54°50' E 013°09'712.0
2015-Feb-23 19:33N 54°48' E 012°57'1211.9
2015-Feb-23 18:31N 54°42' E 012°38'1212.0
2015-Feb-23 17:33N 54°36' E 012°21'1211.7
2015-Feb-23 16:33N 54°26' E 012°11'1211.8
2015-Feb-23 15:34N 54°24' E 011°51'1211.8
2015-Feb-23 14:33N 54°29' E 011°32'1212.1
2015-Feb-23 13:34N 54°34' E 011°14'1212.0
2015-Feb-23 12:32N 54°40' E 010°55'  

Dump ship's entire track history